sim
Sign-in with your pilot id or email,
or register
Callsign
Passwort

Schedule Details

Flight Number: OEO3780
Departure: Basel Mulhouse-Freiburg EuroAirport (LFSB) at 12:45
Arrival: Fuerteventura Airport (GCFV) at 17:10

Weather Information
Getting current METAR information for LFSB 231130Z 11006KT 060V160 CAVOK 33/13 Q1020 NOSIG
Getting current METAR information for GCFV 231130Z 06014KT 9999 FEW020 24/18 Q1017

Schedule Frequency

Route Map